ADDS METAR Data INFO
IDs: Format: Raw Decoded Include TAF

Data at: 0732 UTC 18 Oct 2017

KTMB 180653Z AUTO 36003KT 10SM -RA BKN024 BKN028 OVC055 26/23 A2997 RMK AO2 RAB24 SLP149 P0002 T02560233
KTMB 180627Z AUTO 00000KT 10SM -RA BKN024 BKN032 OVC045 26/23 A2998 RMK AO2 RAB24 P0000 T02560233
KTMB 180553Z AUTO 01003KT 10SM FEW025 SCT043 26/23 A2999 RMK AO2 SLP153 T02560233 10272 20239 58012
KTMB 180453Z AUTO 00000KT 10SM CLR 24/23 A3000 RMK AO2 SLP158 T02440233 403110222
KTMB 180353Z AUTO 29003KT 10SM CLR 24/23 A3002 RMK AO2 SLP165 LAST T02390228
KTMB 180253Z 00000KT 10SM CLR 24/23 A3002 RMK AO2 SLP165 T02440228 51014
KTMB 180153Z 26003KT 10SM FEW027 24/22 A3002 RMK AO2 SLP163 T02440222
KTMB 180053Z 09005KT 10SM SCT031 26/22 A3000 RMK AO2 SLP159 T02610222
KTMB 172353Z 08008KT 10SM CLR 27/22 A2998 RMK AO2 LTG DSNT N SLP151 T02720222 10311 20267 53010
KTMB 172253Z 09009KT 10SM CLR 27/22 A2996 RMK AO2 SLP143 T02720222
KTMB 172153Z 08010KT 10SM CLR 28/22 A2995 RMK AO2 SLP140 T02830222
KTMB 172053Z 10008KT 10SM FEW033 SCT043 29/22 A2995 RMK AO2 SLP141 T02890222 55007
KTMB 171953Z 11009KT 10SM SCT032 SCT043 29/23 A2995 RMK AO2 SLP140 T02940228
KTMB 171853Z 09011KT 10SM FEW032 FEW043 30/23 A2995 RMK AO2 SLP142 T03000228
KTMB 171753Z 11009KT 10SM FEW034 FEW043 30/22 A2997 RMK AO2 SLP148 T03000222 10306 20233 58017
KTMB 171653Z 12007KT 10SM FEW037 31/22 A2999 RMK AO2 SLP155 T03060222
KTMB 171553Z 08007G14KT 10SM FEW034 31/22 A3002 RMK AO2 SLP164 T03060222
KTMB 171453Z 06007KT 10SM SCT024 29/23 A3002 RMK AO2 SLP165 T02940228 51014
KTMB 171353Z 04006KT 10SM FEW030 28/23 A3002 RMK AO2 SLP164 T02780233
KTMB 171253Z 04004KT 10SM CLR 27/24 A3000 RMK AO2 SLP158 T02670239
KTMB 171153Z 02003KT 10SM CLR 23/23 A2998 RMK AO2 SLP151 70178 T02330228 10233 20222 53016
KTMB 171053Z 00000KT 10SM CLR 23/23 A2996 RMK AO2 SLP143 T02330228
KTMB 170953Z AUTO 00000KT 10SM CLR 23/23 A2994 RMK AO2 SLP139 T02280228
KTMB 170853Z AUTO 00000KT 10SM CLR 23/23 A2993 RMK AO2 SLP135 T02280228 56010
KTMB 170753Z AUTO 00000KT 10SM FEW023 22/22 A2993 RMK AO2 SLP136 T02220222
KTMB 170653Z AUTO 00000KT 10SM FEW021 23/23 A2995 RMK AO2 SLP139 T02330228
KTMB 170553Z AUTO 00000KT 10SM CLR 23/23 A2996 RMK AO2 SLP145 T02330228 10256 20228 58005
KTMB 170453Z AUTO 00000KT 10SM CLR 24/23 A2997 RMK AO2 SLP149 T02390228 403110222
KTMB 170353Z AUTO 00000KT 10SM CLR 24/23 A2997 RMK AO2 SLP149 T02440233
KTMB 170253Z AUTO 00000KT 10SM CLR 24/23 A2997 RMK AO2 SLP149 LAST T02440233 51020
KTMB 170153Z 00000KT 10SM CLR 24/23 A2996 RMK AO2 SLP145 T02440233
KTMB 170053Z 10005KT 10SM CLR 25/23 A2994 RMK AO2 SLP139 T02500228
KTMB 162353Z 11004KT 10SM CLR 25/23 A2992 RMK AO2 SLP130 60171 T02500228 10306 20228 53004
KTMB 162253Z 09005KT 10SM CLR 26/23 A2991 RMK AO2 SLP128 T02610233
KTMB 162153Z 10005KT 10SM CLR 28/24 A2990 RMK AO2 SLP125 T02780239
KTMB 162053Z 10004KT 10SM FEW035 SCT065 BKN095 25/22 A2990 RMK AO2 RAE48 TSB06E21B25E40 SLP126 P0132 60171 T02500217 57009
KTMB 162046Z 16004KT 10SM -RA SCT035 SCT060 BKN080 24/22 A2991 RMK AO2 TSB06E21B25E40 P0132 T02440217
KTMB 162037Z 19006KT 10SM -TSRA SCT033 BKN065 OVC095 23/21 A2991 RMK AO2 TSB06E21B25 P0132 T02330206
KTMB 162025Z 14008KT 6SM TSRA BR BKN018 BKN060 OVC090 23/22 A2991 RMK AO2 TSB06E21B25 P0131 T02330217
KTMB 162021Z 14009KT 3SM RA BR BKN014 BKN080 OVC090 23/22 A2991 RMK AO2 TSB06E21 P0128 T02330217
KTMB 162014Z 13009KT 1 1/4SM +TSRA BR BKN012 OVC030 23/22 A2992 RMK AO2 TSB06 P0121 T02280222
KTMB 162007Z 08012KT 1SM +TSRA BR BKN008 OVC032 23/23 A2992 RMK AO2 TSB06 P0098 T02330228
KTMB 162004Z 06015KT 3/4SM +RA BR BKN008 BKN029 OVC034 24/23 A2993 RMK AO2 P0084 T02390228
KTMB 161957Z 07014KT 3/4SM +RA BR SCT008 BKN032 OVC050 24/23 A2993 RMK AO2 P0036 T02390228
KTMB 161953Z 06019KT 1SM +RA BR OVC001 24/24 A2993 RMK AO2 RAB46 PRESRR SLP134 P0039 T02440239